Stena Europe — VSTA3 — position and weather

sailwx.info

Track history (hours):
 
Tides and Currents Weather Stations Pressure Air Temp Water Temp Dewpoint Dewpoint Depression Visibility Wind Speed Wind Dir Waves Ship Positions

Stena Europe

Operator: Stena Line

Last reported at 2019-Nov-20 08:30 UTC. Time now 2019-Nov-20 09:18 UTC.
Position N 52°14' W 006°13'.

Length 149 m; draft 6 m.

Type: Passenger vessel. MMSI: 235004539.

Date/timePositionNaut miles runAvg speedWind from/ knotsBaromVisibWave heightAir tempDewpointWater temp
2019-Nov-20 08:30N 52°14' W 006°13'4 4.3
2019-Nov-20 07:30N 52°15' W 006°20'0 0.0
2019-Nov-20 06:30N 52°15' W 006°20'0 0.0
2019-Nov-20 04:30N 52°15' W 006°20'4 3.8
2019-Nov-20 03:30N 52°14' W 006°14'1716.9
2019-Nov-20 02:30N 52°20' W 005°48'20 2.5
2019-Nov-19 18:30N 52°15' W 006°20'0 0.0
2019-Nov-19 18:00N 52°15' W 006°20'1812.1
2019-Nov-19 16:30N 52°11' W 005°51'2 0.2
2019-Nov-19 08:47N 52°11' W 005°54'16 9.2
2019-Nov-19 07:00N 52°15' W 006°20'0 0.0
2019-Nov-19 04:30N 52°15' W 006°20'23 9.0
2019-Nov-19 02:00N 52°13' W 005°44'8 1.2
2019-Nov-18 19:42N 52°07' W 005°36'416.7
2019-Nov-18 19:28N 52°08' W 005°42'23 6.5
2019-Nov-18 16:00N 52°15' W 006°17'1019.1
2019-Nov-18 15:30N 52°12' W 006°02'8 1.3
2019-Nov-18 09:02N 52°10' W 005°49'20 5.6
2019-Nov-18 05:30N 52°15' W 006°20'0 0.0
2019-Nov-18 05:00N 52°15' W 006°20'0 0.0
2019-Nov-18 04:00N 52°15' W 006°20'1111.4
2019-Nov-18 03:00N 52°17' W 006°02'1313.0
2019-Nov-18 02:00N 52°16' W 005°41'24 2.9
2019-Nov-17 17:30N 52°15' W 006°20'0 0.0
2019-Nov-17 17:00N 52°15' W 006°20'0 0.0
2019-Nov-17 07:30N 52°15' W 006°20'0 0.0
2019-Nov-17 04:31N 52°15' W 006°20'0 0.0
2019-Nov-17 04:00N 52°15' W 006°20'2 4.8
2019-Nov-17 03:30N 52°15' W 006°17'2713.4
2019-Nov-17 01:30N 52°15' W 005°33'11 1.7
2019-Nov-16 19:04N 52°10' W 005°49'117.6
2019-Nov-16 19:00N 52°11' W 005°51'917.6
2019-Nov-16 18:30N 52°13' W 006°05'10 9.8
2019-Nov-16 17:31N 52°15' W 006°20'0 0.0
2019-Nov-16 17:00N 52°15' W 006°20'3 3.2
2019-Nov-16 16:01N 52°14' W 006°15'1019.0
2019-Nov-16 15:31N 52°12' W 006°00'13 1.6
2019-Nov-16 07:30N 52°15' W 006°20'0 0.0
2019-Nov-16 06:30N 52°15' W 006°20'8 2.7
2019-Nov-16 03:31N 52°13' W 006°07'1019.0
2019-Nov-16 03:00N 52°11' W 005°52'919.0
2019-Nov-16 02:30N 52°09' W 005°37'27 3.6
2019-Nov-15 19:00N 52°15' W 006°20'0 0.0
2019-Nov-15 18:00N 52°15' W 006°20'18 2.1
2019-Nov-15 09:14N 52°10' W 005°51'1418.6
2019-Nov-15 08:30N 52°14' W 006°13'5 3.2
2019-Nov-15 07:00N 52°15' W 006°20'0 0.0
2019-Nov-15 04:30N 52°15' W 006°20'0 0.0
2019-Nov-15 03:30N 52°15' W 006°20'0 0.0
2019-Nov-15 00:00N 52°15' W 006°20'0 0.0
2019-Nov-14 22:30N 52°15' W 006°20'0 0.0
2019-Nov-14 10:30N 52°15' W 006°20'7 1.7
2019-Nov-14 06:30N 52°17' W 006°10'6 2.4
2019-Nov-14 04:00N 52°16' W 006°19'2211.0
2019-Nov-14 02:00N 52°11' W 005°44'18 2.3
2019-Nov-13 18:30N 52°14' W 006°12'510.1
2019-Nov-13 18:00N 52°15' W 006°20'4 2.2
2019-Nov-13 16:00N 52°14' W 006°13'2516.6
2019-Nov-13 14:30N 52°08' W 005°34'1 0.2
2019-Nov-13 09:30N 52°09' W 005°35'17 2.6
2019-Nov-13 03:00N 52°13' W 006°02'815.1
2019-Nov-13 02:30N 52°11' W 005°50'612.8
2019-Nov-13 02:00N 52°09' W 005°40'25 3.2
2019-Nov-12 18:01N 52°15' W 006°20'17 6.7
2019-Nov-12 15:30N 52°14' W 005°53'917.2
2019-Nov-12 15:00N 52°13' W 005°39'8 1.3
2019-Nov-12 08:59N 52°11' W 005°51'1812.3
2019-Nov-12 07:30N 52°15' W 006°20'0 0.0
2019-Nov-12 06:00N 52°15' W 006°20'4 1.6
2019-Nov-12 03:30N 52°14' W 006°14'1414.2
2019-Nov-12 02:31N 52°11' W 005°52'18 2.2
2019-Nov-11 18:30N 52°16' W 006°20'0 0.3
2019-Nov-11 17:31N 52°15' W 006°20'0 0.0
2019-Nov-11 17:00N 52°15' W 006°20'0 0.9
2019-Nov-11 16:30N 52°16' W 006°20'2516.9
2019-Nov-11 15:00N 52°10' W 005°40'8 1.3
2019-Nov-11 08:54N 52°11' W 005°53'17 6.0
2019-Nov-11 05:59N 52°15' W 006°20'0 0.0
2019-Nov-11 05:29N 52°15' W 006°20'5 2.7
2019-Nov-11 03:30N 52°14' W 006°12'1414.4
2019-Nov-11 02:30N 52°11' W 005°49'713.6
2019-Nov-11 02:00N 52°09' W 005°38'16 2.1
2019-Nov-10 18:30N 52°13' W 006°03'11 4.4
2019-Nov-10 16:00N 52°15' W 006°20'18 2.6
2019-Nov-10 08:58N 52°10' W 005°52'  
Track history (hours):
 
Tides and Currents Weather Stations Pressure Air Temp Water Temp Dewpoint Dewpoint Depression Visibility Wind Speed Wind Dir Waves Ship Positions

Stena Europe

Operator: Stena Line

Last reported at 2019-Nov-20 08:30 UTC. Time now 2019-Nov-20 09:18 UTC.
Position N 52°14' W 006°13'.

Length 149 m; draft 6 m.

Type: Passenger vessel. MMSI: 235004539.

Date/timePositionNaut miles runAvg speedWind from/ knotsBaromVisibWave heightAir tempDewpointWater temp
2019-Nov-20 08:30N 52°14' W 006°13'4 4.3
2019-Nov-20 07:30N 52°15' W 006°20'0 0.0
2019-Nov-20 06:30N 52°15' W 006°20'0 0.0
2019-Nov-20 04:30N 52°15' W 006°20'4 3.8
2019-Nov-20 03:30N 52°14' W 006°14'1716.9
2019-Nov-20 02:30N 52°20' W 005°48'20 2.5
2019-Nov-19 18:30N 52°15' W 006°20'0 0.0
2019-Nov-19 18:00N 52°15' W 006°20'1812.1
2019-Nov-19 16:30N 52°11' W 005°51'2 0.2
2019-Nov-19 08:47N 52°11' W 005°54'16 9.2
2019-Nov-19 07:00N 52°15' W 006°20'0 0.0
2019-Nov-19 04:30N 52°15' W 006°20'23 9.0
2019-Nov-19 02:00N 52°13' W 005°44'8 1.2
2019-Nov-18 19:42N 52°07' W 005°36'416.7
2019-Nov-18 19:28N 52°08' W 005°42'23 6.5
2019-Nov-18 16:00N 52°15' W 006°17'1019.1
2019-Nov-18 15:30N 52°12' W 006°02'8 1.3
2019-Nov-18 09:02N 52°10' W 005°49'20 5.6
2019-Nov-18 05:30N 52°15' W 006°20'0 0.0
2019-Nov-18 05:00N 52°15' W 006°20'0 0.0
2019-Nov-18 04:00N 52°15' W 006°20'1111.4
2019-Nov-18 03:00N 52°17' W 006°02'1313.0
2019-Nov-18 02:00N 52°16' W 005°41'24 2.9
2019-Nov-17 17:30N 52°15' W 006°20'0 0.0
2019-Nov-17 17:00N 52°15' W 006°20'0 0.0
2019-Nov-17 07:30N 52°15' W 006°20'0 0.0
2019-Nov-17 04:31N 52°15' W 006°20'0 0.0
2019-Nov-17 04:00N 52°15' W 006°20'2 4.8
2019-Nov-17 03:30N 52°15' W 006°17'2713.4
2019-Nov-17 01:30N 52°15' W 005°33'11 1.7
2019-Nov-16 19:04N 52°10' W 005°49'117.6
2019-Nov-16 19:00N 52°11' W 005°51'917.6
2019-Nov-16 18:30N 52°13' W 006°05'10 9.8
2019-Nov-16 17:31N 52°15' W 006°20'0 0.0
2019-Nov-16 17:00N 52°15' W 006°20'3 3.2
2019-Nov-16 16:01N 52°14' W 006°15'1019.0
2019-Nov-16 15:31N 52°12' W 006°00'13 1.6
2019-Nov-16 07:30N 52°15' W 006°20'0 0.0
2019-Nov-16 06:30N 52°15' W 006°20'8 2.7
2019-Nov-16 03:31N 52°13' W 006°07'1019.0
2019-Nov-16 03:00N 52°11' W 005°52'919.0
2019-Nov-16 02:30N 52°09' W 005°37'27 3.6
2019-Nov-15 19:00N 52°15' W 006°20'0 0.0
2019-Nov-15 18:00N 52°15' W 006°20'18 2.1
2019-Nov-15 09:14N 52°10' W 005°51'1418.6
2019-Nov-15 08:30N 52°14' W 006°13'5 3.2
2019-Nov-15 07:00N 52°15' W 006°20'0 0.0
2019-Nov-15 04:30N 52°15' W 006°20'0 0.0
2019-Nov-15 03:30N 52°15' W 006°20'0 0.0
2019-Nov-15 00:00N 52°15' W 006°20'0 0.0
2019-Nov-14 22:30N 52°15' W 006°20'0 0.0
2019-Nov-14 10:30N 52°15' W 006°20'7 1.7
2019-Nov-14 06:30N 52°17' W 006°10'6 2.4
2019-Nov-14 04:00N 52°16' W 006°19'2211.0
2019-Nov-14 02:00N 52°11' W 005°44'18 2.3
2019-Nov-13 18:30N 52°14' W 006°12'510.1
2019-Nov-13 18:00N 52°15' W 006°20'4 2.2
2019-Nov-13 16:00N 52°14' W 006°13'2516.6
2019-Nov-13 14:30N 52°08' W 005°34'1 0.2
2019-Nov-13 09:30N 52°09' W 005°35'17 2.6
2019-Nov-13 03:00N 52°13' W 006°02'815.1
2019-Nov-13 02:30N 52°11' W 005°50'612.8
2019-Nov-13 02:00N 52°09' W 005°40'25 3.2
2019-Nov-12 18:01N 52°15' W 006°20'17 6.7
2019-Nov-12 15:30N 52°14' W 005°53'917.2
2019-Nov-12 15:00N 52°13' W 005°39'8 1.3
2019-Nov-12 08:59N 52°11' W 005°51'1812.3
2019-Nov-12 07:30N 52°15' W 006°20'0 0.0
2019-Nov-12 06:00N 52°15' W 006°20'4 1.6
2019-Nov-12 03:30N 52°14' W 006°14'1414.2
2019-Nov-12 02:31N 52°11' W 005°52'18 2.2
2019-Nov-11 18:30N 52°16' W 006°20'0 0.3
2019-Nov-11 17:31N 52°15' W 006°20'0 0.0
2019-Nov-11 17:00N 52°15' W 006°20'0 0.9
2019-Nov-11 16:30N 52°16' W 006°20'2516.9
2019-Nov-11 15:00N 52°10' W 005°40'8 1.3
2019-Nov-11 08:54N 52°11' W 005°53'17 6.0
2019-Nov-11 05:59N 52°15' W 006°20'0 0.0
2019-Nov-11 05:29N 52°15' W 006°20'5 2.7
2019-Nov-11 03:30N 52°14' W 006°12'1414.4
2019-Nov-11 02:30N 52°11' W 005°49'713.6
2019-Nov-11 02:00N 52°09' W 005°38'16 2.1
2019-Nov-10 18:30N 52°13' W 006°03'11 4.4
2019-Nov-10 16:00N 52°15' W 006°20'18 2.6
2019-Nov-10 08:58N 52°10' W 005°52'  

Dump ship's entire track history